sensor_id;sensor_type;location;lat;lon;timestamp;P1;durP1;ratioP1;P2;durP2;ratioP2
37407;SDS011;24866;50.248;8.252;2023-10-09T00:01:04;18.27;;;10.23;;
37407;SDS011;24866;50.248;8.252;2023-10-09T00:03:41;18.40;;;10.48;;
37407;SDS011;24866;50.248;8.252;2023-10-09T00:06:11;26.90;;;13.52;;
37407;SDS011;24866;50.248;8.252;2023-10-09T00:08:43;21.77;;;11.38;;
37407;SDS011;24866;50.248;8.252;2023-10-09T00:11:16;15.48;;;9.00;;
37407;SDS011;24866;50.248;8.252;2023-10-09T00:13:54;14.07;;;8.68;;
37407;SDS011;24866;50.248;8.252;2023-10-09T00:16:26;13.73;;;7.82;;
37407;SDS011;24866;50.248;8.252;2023-10-09T00:19:03;14.88;;;7.25;;
37407;SDS011;24866;50.248;8.252;2023-10-09T00:21:42;12.35;;;6.53;;
37407;SDS011;24866;50.248;8.252;2023-10-09T00:24:14;13.18;;;7.55;;
37407;SDS011;24866;50.248;8.252;2023-10-09T00:26:51;13.68;;;7.18;;
37407;SDS011;24866;50.248;8.252;2023-10-09T00:29:23;13.23;;;7.18;;
37407;SDS011;24866;50.248;8.252;2023-10-09T00:31:56;12.38;;;6.97;;
37407;SDS011;24866;50.248;8.252;2023-10-09T00:34:41;10.80;;;6.53;;
37407;SDS011;24866;50.248;8.252;2023-10-09T00:37:11;13.48;;;7.07;;
37407;SDS011;24866;50.248;8.252;2023-10-09T00:39:45;12.90;;;7.40;;
37407;SDS011;24866;50.248;8.252;2023-10-09T00:42:24;12.50;;;7.80;;
37407;SDS011;24866;50.248;8.252;2023-10-09T00:44:57;13.48;;;7.90;;
37407;SDS011;24866;50.248;8.252;2023-10-09T00:47:31;14.93;;;7.05;;
37407;SDS011;24866;50.248;8.252;2023-10-09T00:50:03;12.43;;;6.78;;
37407;SDS011;24866;50.248;8.252;2023-10-09T00:52:39;11.30;;;7.07;;
37407;SDS011;24866;50.248;8.252;2023-10-09T00:55:13;12.05;;;7.40;;
37407;SDS011;24866;50.248;8.252;2023-10-09T00:57:43;11.75;;;6.90;;
37407;SDS011;24866;50.248;8.252;2023-10-09T01:00:24;14.20;;;7.65;;
37407;SDS011;24866;50.248;8.252;2023-10-09T01:03:14;12.60;;;7.53;;
37407;SDS011;24866;50.248;8.252;2023-10-09T01:05:49;11.23;;;7.55;;
37407;SDS011;24866;50.248;8.252;2023-10-09T01:08:26;12.98;;;7.63;;
37407;SDS011;24866;50.248;8.252;2023-10-09T01:11:13;12.23;;;6.95;;
37407;SDS011;24866;50.248;8.252;2023-10-09T01:13:49;8.25;;;6.20;;
37407;SDS011;24866;50.248;8.252;2023-10-09T01:16:27;9.77;;;6.00;;
37407;SDS011;24866;50.248;8.252;2023-10-09T01:18:59;12.35;;;8.45;;
37407;SDS011;24866;50.248;8.252;2023-10-09T01:21:34;9.77;;;6.57;;
37407;SDS011;24866;50.248;8.252;2023-10-09T01:24:05;9.05;;;6.70;;
37407;SDS011;24866;50.248;8.252;2023-10-09T01:29:13;10.30;;;5.80;;
37407;SDS011;24866;50.248;8.252;2023-10-09T01:31:45;12.82;;;7.22;;
37407;SDS011;24866;50.248;8.252;2023-10-09T01:34:22;11.95;;;7.22;;
37407;SDS011;24866;50.248;8.252;2023-10-09T01:37:07;10.73;;;6.40;;
37407;SDS011;24866;50.248;8.252;2023-10-09T01:39:41;10.05;;;6.68;;
37407;SDS011;24866;50.248;8.252;2023-10-09T01:42:13;11.98;;;6.70;;
37407;SDS011;24866;50.248;8.252;2023-10-09T01:44:51;10.73;;;6.32;;
37407;SDS011;24866;50.248;8.252;2023-10-09T01:47:21;12.95;;;8.13;;
37407;SDS011;24866;50.248;8.252;2023-10-09T01:49:53;16.02;;;7.72;;
37407;SDS011;24866;50.248;8.252;2023-10-09T01:52:26;10.48;;;6.30;;
37407;SDS011;24866;50.248;8.252;2023-10-09T01:54:57;13.85;;;7.00;;
37407;SDS011;24866;50.248;8.252;2023-10-09T01:57:37;10.73;;;7.13;;
37407;SDS011;24866;50.248;8.252;2023-10-09T02:00:13;13.68;;;6.90;;
37407;SDS011;24866;50.248;8.252;2023-10-09T02:02:50;11.50;;;6.88;;
37407;SDS011;24866;50.248;8.252;2023-10-09T02:05:20;12.55;;;7.30;;
37407;SDS011;24866;50.248;8.252;2023-10-09T02:07:54;12.07;;;7.00;;
37407;SDS011;24866;50.248;8.252;2023-10-09T02:10:28;11.60;;;6.40;;
37407;SDS011;24866;50.248;8.252;2023-10-09T02:13:01;11.80;;;7.00;;
37407;SDS011;24866;50.248;8.252;2023-10-09T02:15:36;11.32;;;6.50;;
37407;SDS011;24866;50.248;8.252;2023-10-09T02:18:14;12.65;;;7.93;;
37407;SDS011;24866;50.248;8.252;2023-10-09T02:21:03;10.48;;;6.85;;
37407;SDS011;24866;50.248;8.252;2023-10-09T02:23:41;10.73;;;6.20;;
37407;SDS011;24866;50.248;8.252;2023-10-09T02:26:19;10.35;;;6.10;;
37407;SDS011;24866;50.248;8.252;2023-10-09T02:28:53;9.50;;;6.45;;
37407;SDS011;24866;50.248;8.252;2023-10-09T02:31:27;16.63;;;6.85;;
37407;SDS011;24866;50.248;8.252;2023-10-09T02:34:03;14.68;;;6.75;;
37407;SDS011;24866;50.248;8.252;2023-10-09T02:36:36;13.57;;;6.97;;
37407;SDS011;24866;50.248;8.252;2023-10-09T02:39:10;9.52;;;5.97;;
37407;SDS011;24866;50.248;8.252;2023-10-09T02:41:52;8.25;;;6.22;;
37407;SDS011;24866;50.248;8.252;2023-10-09T02:44:28;10.48;;;6.28;;
37407;SDS011;24866;50.248;8.252;2023-10-09T02:47:02;8.93;;;5.88;;
37407;SDS011;24866;50.248;8.252;2023-10-09T02:49:34;12.73;;;6.63;;
37407;SDS011;24866;50.248;8.252;2023-10-09T02:52:06;9.00;;;6.17;;
37407;SDS011;24866;50.248;8.252;2023-10-09T02:54:36;14.07;;;7.40;;
37407;SDS011;24866;50.248;8.252;2023-10-09T02:57:11;13.30;;;6.65;;
37407;SDS011;24866;50.248;8.252;2023-10-09T02:59:50;12.20;;;6.50;;
37407;SDS011;24866;50.248;8.252;2023-10-09T03:02:20;11.65;;;5.82;;
37407;SDS011;24866;50.248;8.252;2023-10-09T03:04:52;10.07;;;6.15;;
37407;SDS011;24866;50.248;8.252;2023-10-09T03:07:23;12.88;;;6.95;;
37407;SDS011;24866;50.248;8.252;2023-10-09T03:09:53;9.10;;;5.43;;
37407;SDS011;24866;50.248;8.252;2023-10-09T03:12:24;10.07;;;5.55;;
37407;SDS011;24866;50.248;8.252;2023-10-09T03:14:56;9.63;;;6.40;;
37407;SDS011;24866;50.248;8.252;2023-10-09T03:17:27;10.68;;;5.57;;
37407;SDS011;24866;50.248;8.252;2023-10-09T03:19:56;11.20;;;7.18;;
37407;SDS011;24866;50.248;8.252;2023-10-09T03:22:27;7.70;;;5.70;;
37407;SDS011;24866;50.248;8.252;2023-10-09T03:24:59;11.63;;;7.10;;
37407;SDS011;24866;50.248;8.252;2023-10-09T03:27:30;13.23;;;6.55;;
37407;SDS011;24866;50.248;8.252;2023-10-09T03:29:59;11.48;;;6.15;;
37407;SDS011;24866;50.248;8.252;2023-10-09T03:32:33;10.13;;;5.95;;
37407;SDS011;24866;50.248;8.252;2023-10-09T03:35:03;11.80;;;6.20;;
37407;SDS011;24866;50.248;8.252;2023-10-09T03:37:38;10.68;;;5.88;;
37407;SDS011;24866;50.248;8.252;2023-10-09T03:40:08;9.13;;;5.47;;
37407;SDS011;24866;50.248;8.252;2023-10-09T03:42:46;9.30;;;5.57;;
37407;SDS011;24866;50.248;8.252;2023-10-09T03:45:16;10.25;;;6.10;;
37407;SDS011;24866;50.248;8.252;2023-10-09T03:47:53;9.27;;;5.78;;
37407;SDS011;24866;50.248;8.252;2023-10-09T03:50:32;11.07;;;6.00;;
37407;SDS011;24866;50.248;8.252;2023-10-09T03:53:05;8.35;;;6.22;;
37407;SDS011;24866;50.248;8.252;2023-10-09T03:55:40;11.30;;;6.13;;
37407;SDS011;24866;50.248;8.252;2023-10-09T03:58:11;9.75;;;5.60;;
37407;SDS011;24866;50.248;8.252;2023-10-09T04:00:43;12.32;;;5.32;;
37407;SDS011;24866;50.248;8.252;2023-10-09T04:03:14;11.63;;;6.25;;
37407;SDS011;24866;50.248;8.252;2023-10-09T04:05:44;8.48;;;5.38;;
37407;SDS011;24866;50.248;8.252;2023-10-09T04:08:14;12.73;;;6.22;;
37407;SDS011;24866;50.248;8.252;2023-10-09T04:10:57;11.20;;;6.45;;
37407;SDS011;24866;50.248;8.252;2023-10-09T04:13:33;11.98;;;5.35;;
37407;SDS011;24866;50.248;8.252;2023-10-09T04:16:03;7.60;;;5.65;;
37407;SDS011;24866;50.248;8.252;2023-10-09T04:18:41;9.02;;;5.80;;
37407;SDS011;24866;50.248;8.252;2023-10-09T04:21:13;9.65;;;5.97;;
37407;SDS011;24866;50.248;8.252;2023-10-09T04:23:46;11.18;;;5.90;;
37407;SDS011;24866;50.248;8.252;2023-10-09T04:26:34;9.00;;;5.47;;
37407;SDS011;24866;50.248;8.252;2023-10-09T04:29:06;9.95;;;5.47;;
37407;SDS011;24866;50.248;8.252;2023-10-09T04:31:38;11.77;;;6.40;;
37407;SDS011;24866;50.248;8.252;2023-10-09T04:34:09;9.27;;;5.38;;
37407;SDS011;24866;50.248;8.252;2023-10-09T04:36:51;8.17;;;5.53;;
37407;SDS011;24866;50.248;8.252;2023-10-09T04:39:26;9.13;;;5.40;;
37407;SDS011;24866;50.248;8.252;2023-10-09T04:42:14;9.38;;;5.40;;
37407;SDS011;24866;50.248;8.252;2023-10-09T04:44:55;10.40;;;5.40;;
37407;SDS011;24866;50.248;8.252;2023-10-09T04:47:46;8.13;;;5.15;;
37407;SDS011;24866;50.248;8.252;2023-10-09T04:50:25;10.02;;;5.63;;
37407;SDS011;24866;50.248;8.252;2023-10-09T04:53:13;9.30;;;5.57;;
37407;SDS011;24866;50.248;8.252;2023-10-09T04:55:51;10.50;;;5.82;;
37407;SDS011;24866;50.248;8.252;2023-10-09T04:58:23;9.53;;;6.37;;
37407;SDS011;24866;50.248;8.252;2023-10-09T05:00:55;10.15;;;5.88;;
37407;SDS011;24866;50.248;8.252;2023-10-09T05:03:42;11.10;;;6.18;;
37407;SDS011;24866;50.248;8.252;2023-10-09T05:06:12;10.23;;;6.28;;
37407;SDS011;24866;50.248;8.252;2023-10-09T05:09:00;12.32;;;5.75;;
37407;SDS011;24866;50.248;8.252;2023-10-09T05:11:41;9.68;;;5.55;;
37407;SDS011;24866;50.248;8.252;2023-10-09T05:14:22;9.25;;;5.50;;
37407;SDS011;24866;50.248;8.252;2023-10-09T05:17:08;10.32;;;5.60;;
37407;SDS011;24866;50.248;8.252;2023-10-09T05:19:43;9.95;;;5.63;;
37407;SDS011;24866;50.248;8.252;2023-10-09T05:22:23;8.48;;;5.15;;
37407;SDS011;24866;50.248;8.252;2023-10-09T05:25:04;8.65;;;5.60;;
37407;SDS011;24866;50.248;8.252;2023-10-09T05:27:53;9.75;;;5.40;;
37407;SDS011;24866;50.248;8.252;2023-10-09T05:30:41;11.68;;;5.80;;
37407;SDS011;24866;50.248;8.252;2023-10-09T05:33:13;14.30;;;6.20;;
37407;SDS011;24866;50.248;8.252;2023-10-09T05:36:00;9.35;;;6.35;;
37407;SDS011;24866;50.248;8.252;2023-10-09T05:38:48;8.85;;;5.75;;
37407;SDS011;24866;50.248;8.252;2023-10-09T05:41:27;11.65;;;5.05;;
37407;SDS011;24866;50.248;8.252;2023-10-09T05:44:19;9.93;;;5.80;;
37407;SDS011;24866;50.248;8.252;2023-10-09T05:47:06;12.23;;;5.93;;
37407;SDS011;24866;50.248;8.252;2023-10-09T05:50:00;11.18;;;6.05;;
37407;SDS011;24866;50.248;8.252;2023-10-09T05:52:44;8.65;;;5.63;;
37407;SDS011;24866;50.248;8.252;2023-10-09T05:55:32;12.18;;;5.82;;
37407;SDS011;24866;50.248;8.252;2023-10-09T05:58:36;8.90;;;5.72;;
37407;SDS011;24866;50.248;8.252;2023-10-09T06:01:26;10.30;;;5.35;;
37407;SDS011;24866;50.248;8.252;2023-10-09T06:04:13;11.43;;;5.95;;
37407;SDS011;24866;50.248;8.252;2023-10-09T06:06:46;10.23;;;6.18;;
37407;SDS011;24866;50.248;8.252;2023-10-09T06:09:24;8.60;;;5.47;;
37407;SDS011;24866;50.248;8.252;2023-10-09T06:12:11;12.23;;;5.50;;
37407;SDS011;24866;50.248;8.252;2023-10-09T06:15:04;9.50;;;6.10;;
37407;SDS011;24866;50.248;8.252;2023-10-09T06:18:19;11.02;;;6.32;;
37407;SDS011;24866;50.248;8.252;2023-10-09T06:20:54;10.60;;;5.85;;
37407;SDS011;24866;50.248;8.252;2023-10-09T06:23:42;10.52;;;5.68;;
37407;SDS011;24866;50.248;8.252;2023-10-09T06:26:43;9.57;;;5.57;;
37407;SDS011;24866;50.248;8.252;2023-10-09T06:29:40;11.40;;;6.32;;
37407;SDS011;24866;50.248;8.252;2023-10-09T06:32:41;13.23;;;7.68;;
37407;SDS011;24866;50.248;8.252;2023-10-09T06:35:19;12.68;;;7.13;;
37407;SDS011;24866;50.248;8.252;2023-10-09T06:37:50;12.45;;;6.82;;
37407;SDS011;24866;50.248;8.252;2023-10-09T06:40:39;9.43;;;6.53;;
37407;SDS011;24866;50.248;8.252;2023-10-09T06:43:26;10.18;;;5.78;;
37407;SDS011;24866;50.248;8.252;2023-10-09T06:45:56;11.30;;;6.20;;
37407;SDS011;24866;50.248;8.252;2023-10-09T06:48:47;10.75;;;5.93;;
37407;SDS011;24866;50.248;8.252;2023-10-09T06:51:24;51.95;;;38.00;;
37407;SDS011;24866;50.248;8.252;2023-10-09T06:54:12;33.67;;;25.75;;
37407;SDS011;24866;50.248;8.252;2023-10-09T06:56:45;53.13;;;37.88;;
37407;SDS011;24866;50.248;8.252;2023-10-09T06:59:32;25.50;;;17.65;;
37407;SDS011;24866;50.248;8.252;2023-10-09T07:02:30;23.02;;;15.35;;
37407;SDS011;24866;50.248;8.252;2023-10-09T07:05:14;19.30;;;13.85;;
37407;SDS011;24866;50.248;8.252;2023-10-09T07:07:45;17.95;;;7.55;;
37407;SDS011;24866;50.248;8.252;2023-10-09T07:10:23;9.73;;;5.60;;
37407;SDS011;24866;50.248;8.252;2023-10-09T07:13:02;11.00;;;6.30;;
37407;SDS011;24866;50.248;8.252;2023-10-09T07:15:32;11.23;;;6.47;;
37407;SDS011;24866;50.248;8.252;2023-10-09T07:18:19;18.10;;;11.43;;
37407;SDS011;24866;50.248;8.252;2023-10-09T07:20:51;15.20;;;10.23;;
37407;SDS011;24866;50.248;8.252;2023-10-09T07:23:39;14.77;;;9.73;;
37407;SDS011;24866;50.248;8.252;2023-10-09T07:26:16;14.52;;;9.85;;
37407;SDS011;24866;50.248;8.252;2023-10-09T07:28:52;21.08;;;13.38;;
37407;SDS011;24866;50.248;8.252;2023-10-09T07:31:44;11.25;;;8.43;;
37407;SDS011;24866;50.248;8.252;2023-10-09T07:34:14;14.25;;;8.93;;
37407;SDS011;24866;50.248;8.252;2023-10-09T07:37:20;10.45;;;7.25;;
37407;SDS011;24866;50.248;8.252;2023-10-09T07:39:51;9.55;;;6.45;;
37407;SDS011;24866;50.248;8.252;2023-10-09T07:42:26;15.95;;;7.20;;
37407;SDS011;24866;50.248;8.252;2023-10-09T07:45:03;13.25;;;6.68;;
37407;SDS011;24866;50.248;8.252;2023-10-09T07:48:00;10.88;;;7.07;;
37407;SDS011;24866;50.248;8.252;2023-10-09T07:50:36;10.77;;;7.00;;
37407;SDS011;24866;50.248;8.252;2023-10-09T07:53:09;15.45;;;8.27;;
37407;SDS011;24866;50.248;8.252;2023-10-09T07:55:47;17.00;;;9.23;;
37407;SDS011;24866;50.248;8.252;2023-10-09T07:58:25;13.38;;;9.23;;
37407;SDS011;24866;50.248;8.252;2023-10-09T08:00:56;18.67;;;11.35;;
37407;SDS011;24866;50.248;8.252;2023-10-09T08:03:44;15.80;;;9.75;;
37407;SDS011;24866;50.248;8.252;2023-10-09T08:06:25;15.95;;;8.00;;
37407;SDS011;24866;50.248;8.252;2023-10-09T08:09:07;11.43;;;7.00;;
37407;SDS011;24866;50.248;8.252;2023-10-09T08:12:06;11.60;;;7.22;;
37407;SDS011;24866;50.248;8.252;2023-10-09T08:14:56;11.98;;;8.52;;
37407;SDS011;24866;50.248;8.252;2023-10-09T08:17:29;15.50;;;9.15;;
37407;SDS011;24866;50.248;8.252;2023-10-09T08:20:05;13.57;;;8.57;;
37407;SDS011;24866;50.248;8.252;2023-10-09T08:22:40;11.52;;;8.60;;
37407;SDS011;24866;50.248;8.252;2023-10-09T08:25:18;15.27;;;9.68;;
37407;SDS011;24866;50.248;8.252;2023-10-09T08:28:00;15.50;;;10.30;;
37407;SDS011;24866;50.248;8.252;2023-10-09T08:30:48;13.63;;;10.27;;
37407;SDS011;24866;50.248;8.252;2023-10-09T08:33:32;13.87;;;10.77;;
37407;SDS011;24866;50.248;8.252;2023-10-09T08:36:09;16.05;;;9.80;;
37407;SDS011;24866;50.248;8.252;2023-10-09T08:38:43;15.02;;;8.40;;
37407;SDS011;24866;50.248;8.252;2023-10-09T08:41:13;12.52;;;8.40;;
37407;SDS011;24866;50.248;8.252;2023-10-09T08:43:47;11.95;;;7.80;;
37407;SDS011;24866;50.248;8.252;2023-10-09T08:46:20;10.77;;;7.10;;
37407;SDS011;24866;50.248;8.252;2023-10-09T08:48:56;12.30;;;7.75;;
37407;SDS011;24866;50.248;8.252;2023-10-09T08:53:57;11.65;;;6.45;;
37407;SDS011;24866;50.248;8.252;2023-10-09T08:56:27;10.95;;;6.55;;
37407;SDS011;24866;50.248;8.252;2023-10-09T08:58:58;11.93;;;7.07;;
37407;SDS011;24866;50.248;8.252;2023-10-09T09:01:30;10.60;;;7.40;;
37407;SDS011;24866;50.248;8.252;2023-10-09T09:04:04;10.10;;;7.00;;
37407;SDS011;24866;50.248;8.252;2023-10-09T09:06:36;10.75;;;6.68;;
37407;SDS011;24866;50.248;8.252;2023-10-09T09:09:11;12.82;;;7.72;;
37407;SDS011;24866;50.248;8.252;2023-10-09T09:11:43;10.75;;;7.53;;
37407;SDS011;24866;50.248;8.252;2023-10-09T09:14:20;12.25;;;7.68;;
37407;SDS011;24866;50.248;8.252;2023-10-09T09:17:06;15.40;;;7.25;;
37407;SDS011;24866;50.248;8.252;2023-10-09T09:19:40;10.48;;;5.07;;
37407;SDS011;24866;50.248;8.252;2023-10-09T09:22:10;10.93;;;6.35;;
37407;SDS011;24866;50.248;8.252;2023-10-09T09:24:40;11.15;;;7.43;;
37407;SDS011;24866;50.248;8.252;2023-10-09T09:27:43;9.70;;;6.22;;
37407;SDS011;24866;50.248;8.252;2023-10-09T09:30:24;11.48;;;5.88;;
37407;SDS011;24866;50.248;8.252;2023-10-09T09:33:04;12.25;;;7.88;;
37407;SDS011;24866;50.248;8.252;2023-10-09T09:36:00;19.00;;;11.90;;
37407;SDS011;24866;50.248;8.252;2023-10-09T09:38:33;16.05;;;7.97;;
37407;SDS011;24866;50.248;8.252;2023-10-09T09:41:10;12.07;;;6.97;;
37407;SDS011;24866;50.248;8.252;2023-10-09T09:43:45;11.60;;;6.47;;
37407;SDS011;24866;50.248;8.252;2023-10-09T09:46:15;19.15;;;6.82;;
37407;SDS011;24866;50.248;8.252;2023-10-09T09:48:47;12.47;;;8.30;;
37407;SDS011;24866;50.248;8.252;2023-10-09T09:51:23;11.80;;;5.90;;
37407;SDS011;24866;50.248;8.252;2023-10-09T09:53:57;13.48;;;5.93;;
37407;SDS011;24866;50.248;8.252;2023-10-09T09:56:26;9.70;;;5.65;;
37407;SDS011;24866;50.248;8.252;2023-10-09T09:59:00;13.73;;;6.45;;
37407;SDS011;24866;50.248;8.252;2023-10-09T10:01:34;9.13;;;5.97;;
37407;SDS011;24866;50.248;8.252;2023-10-09T10:04:09;11.98;;;5.72;;
37407;SDS011;24866;50.248;8.252;2023-10-09T10:06:43;12.45;;;5.95;;
37407;SDS011;24866;50.248;8.252;2023-10-09T10:12:07;16.50;;;8.77;;
37407;SDS011;24866;50.248;8.252;2023-10-09T10:14:54;12.68;;;7.78;;
37407;SDS011;24866;50.248;8.252;2023-10-09T10:17:27;14.00;;;7.97;;
37407;SDS011;24866;50.248;8.252;2023-10-09T10:20:01;11.20;;;7.50;;
37407;SDS011;24866;50.248;8.252;2023-10-09T10:25:54;12.02;;;7.13;;
37407;SDS011;24866;50.248;8.252;2023-10-09T10:28:28;11.38;;;7.38;;
37407;SDS011;24866;50.248;8.252;2023-10-09T10:31:04;11.77;;;7.28;;
37407;SDS011;24866;50.248;8.252;2023-10-09T10:36:35;13.20;;;6.30;;
37407;SDS011;24866;50.248;8.252;2023-10-09T10:39:11;9.40;;;5.75;;
37407;SDS011;24866;50.248;8.252;2023-10-09T10:41:52;14.27;;;5.63;;
37407;SDS011;24866;50.248;8.252;2023-10-09T10:44:26;10.35;;;5.78;;
37407;SDS011;24866;50.248;8.252;2023-10-09T10:49:51;9.68;;;5.43;;
37407;SDS011;24866;50.248;8.252;2023-10-09T10:52:26;8.68;;;4.82;;
37407;SDS011;24866;50.248;8.252;2023-10-09T10:55:12;9.32;;;5.20;;
37407;SDS011;24866;50.248;8.252;2023-10-09T10:58:15;9.55;;;4.97;;
37407;SDS011;24866;50.248;8.252;2023-10-09T11:00:52;9.68;;;5.00;;
37407;SDS011;24866;50.248;8.252;2023-10-09T11:03:40;9.32;;;4.95;;
37407;SDS011;24866;50.248;8.252;2023-10-09T11:06:24;9.82;;;4.90;;
37407;SDS011;24866;50.248;8.252;2023-10-09T11:09:04;8.48;;;4.22;;
37407;SDS011;24866;50.248;8.252;2023-10-09T11:11:39;9.77;;;4.72;;
37407;SDS011;24866;50.248;8.252;2023-10-09T11:14:15;7.70;;;4.47;;
37407;SDS011;24866;50.248;8.252;2023-10-09T11:16:45;10.98;;;4.25;;
37407;SDS011;24866;50.248;8.252;2023-10-09T11:19:19;8.20;;;4.63;;
37407;SDS011;24866;50.248;8.252;2023-10-09T11:21:58;9.30;;;5.30;;
37407;SDS011;24866;50.248;8.252;2023-10-09T11:24:53;7.82;;;3.85;;
37407;SDS011;24866;50.248;8.252;2023-10-09T11:27:41;8.40;;;4.35;;
37407;SDS011;24866;50.248;8.252;2023-10-09T11:30:18;8.57;;;4.25;;
37407;SDS011;24866;50.248;8.252;2023-10-09T11:33:04;8.27;;;4.13;;
37407;SDS011;24866;50.248;8.252;2023-10-09T11:35:33;9.93;;;4.68;;
37407;SDS011;24866;50.248;8.252;2023-10-09T11:38:04;8.68;;;4.43;;
37407;SDS011;24866;50.248;8.252;2023-10-09T11:40:50;7.57;;;4.35;;
37407;SDS011;24866;50.248;8.252;2023-10-09T11:43:48;9.85;;;4.82;;
37407;SDS011;24866;50.248;8.252;2023-10-09T11:46:22;10.90;;;4.40;;
37407;SDS011;24866;50.248;8.252;2023-10-09T11:49:17;9.35;;;4.60;;
37407;SDS011;24866;50.248;8.252;2023-10-09T11:52:12;9.23;;;4.63;;
37407;SDS011;24866;50.248;8.252;2023-10-09T11:54:59;10.07;;;4.53;;
37407;SDS011;24866;50.248;8.252;2023-10-09T11:57:29;8.80;;;4.68;;
37407;SDS011;24866;50.248;8.252;2023-10-09T12:00:01;9.23;;;4.30;;
37407;SDS011;24866;50.248;8.252;2023-10-09T12:02:52;10.32;;;4.47;;
37407;SDS011;24866;50.248;8.252;2023-10-09T12:05:22;10.55;;;4.85;;
37407;SDS011;24866;50.248;8.252;2023-10-09T12:07:56;9.75;;;5.00;;
37407;SDS011;24866;50.248;8.252;2023-10-09T12:10:27;8.57;;;4.10;;
37407;SDS011;24866;50.248;8.252;2023-10-09T12:12:58;8.68;;;4.28;;
37407;SDS011;24866;50.248;8.252;2023-10-09T12:15:34;8.32;;;4.15;;
37407;SDS011;24866;50.248;8.252;2023-10-09T12:18:07;12.00;;;4.80;;
37407;SDS011;24866;50.248;8.252;2023-10-09T12:20:43;9.73;;;4.40;;
37407;SDS011;24866;50.248;8.252;2023-10-09T12:23:19;8.27;;;4.15;;
37407;SDS011;24866;50.248;8.252;2023-10-09T12:25:50;10.10;;;4.15;;
37407;SDS011;24866;50.248;8.252;2023-10-09T12:28:24;11.57;;;4.10;;
37407;SDS011;24866;50.248;8.252;2023-10-09T12:30:55;7.53;;;3.95;;
37407;SDS011;24866;50.248;8.252;2023-10-09T12:33:29;9.75;;;5.30;;
37407;SDS011;24866;50.248;8.252;2023-10-09T12:36:00;7.53;;;4.25;;
37407;SDS011;24866;50.248;8.252;2023-10-09T12:38:32;7.78;;;4.07;;
37407;SDS011;24866;50.248;8.252;2023-10-09T12:41:03;10.00;;;4.70;;
37407;SDS011;24866;50.248;8.252;2023-10-09T12:43:46;8.35;;;4.47;;
37407;SDS011;24866;50.248;8.252;2023-10-09T12:46:17;9.38;;;3.90;;
37407;SDS011;24866;50.248;8.252;2023-10-09T12:48:51;6.75;;;3.70;;
37407;SDS011;24866;50.248;8.252;2023-10-09T12:51:22;7.68;;;4.10;;
37407;SDS011;24866;50.248;8.252;2023-10-09T12:53:58;8.80;;;4.55;;
37407;SDS011;24866;50.248;8.252;2023-10-09T12:56:29;7.25;;;4.07;;
37407;SDS011;24866;50.248;8.252;2023-10-09T12:59:05;10.43;;;4.68;;
37407;SDS011;24866;50.248;8.252;2023-10-09T13:01:37;9.75;;;4.28;;
37407;SDS011;24866;50.248;8.252;2023-10-09T13:04:11;10.48;;;4.47;;
37407;SDS011;24866;50.248;8.252;2023-10-09T13:09:15;8.60;;;4.50;;
37407;SDS011;24866;50.248;8.252;2023-10-09T13:11:52;11.23;;;3.95;;
37407;SDS011;24866;50.248;8.252;2023-10-09T13:14:27;13.75;;;4.63;;
37407;SDS011;24866;50.248;8.252;2023-10-09T13:16:59;10.57;;;4.68;;
37407;SDS011;24866;50.248;8.252;2023-10-09T13:19:36;7.45;;;3.90;;
37407;SDS011;24866;50.248;8.252;2023-10-09T13:22:06;9.10;;;4.40;;
37407;SDS011;24866;50.248;8.252;2023-10-09T13:24:40;10.93;;;4.43;;
37407;SDS011;24866;50.248;8.252;2023-10-09T13:27:10;7.35;;;3.60;;
37407;SDS011;24866;50.248;8.252;2023-10-09T13:29:41;8.20;;;4.35;;
37407;SDS011;24866;50.248;8.252;2023-10-09T13:32:12;9.63;;;4.55;;
37407;SDS011;24866;50.248;8.252;2023-10-09T13:34:42;11.30;;;5.13;;
37407;SDS011;24866;50.248;8.252;2023-10-09T13:37:13;9.95;;;4.38;;
37407;SDS011;24866;50.248;8.252;2023-10-09T13:39:50;9.27;;;4.70;;
37407;SDS011;24866;50.248;8.252;2023-10-09T13:42:24;11.35;;;5.50;;
37407;SDS011;24866;50.248;8.252;2023-10-09T13:44:54;9.93;;;4.57;;
37407;SDS011;24866;50.248;8.252;2023-10-09T13:47:25;10.07;;;4.60;;
37407;SDS011;24866;50.248;8.252;2023-10-09T13:49:59;8.52;;;4.40;;
37407;SDS011;24866;50.248;8.252;2023-10-09T13:52:29;9.18;;;4.38;;
37407;SDS011;24866;50.248;8.252;2023-10-09T13:55:00;7.53;;;4.10;;
37407;SDS011;24866;50.248;8.252;2023-10-09T13:57:43;10.70;;;4.72;;
37407;SDS011;24866;50.248;8.252;2023-10-09T14:00:13;8.73;;;4.70;;
37407;SDS011;24866;50.248;8.252;2023-10-09T14:02:49;11.70;;;4.90;;
37407;SDS011;24866;50.248;8.252;2023-10-09T14:05:19;11.40;;;5.55;;
37407;SDS011;24866;50.248;8.252;2023-10-09T14:07:49;11.07;;;4.80;;
37407;SDS011;24866;50.248;8.252;2023-10-09T14:12:56;10.23;;;5.18;;
37407;SDS011;24866;50.248;8.252;2023-10-09T14:15:27;12.15;;;5.32;;
37407;SDS011;24866;50.248;8.252;2023-10-09T14:17:58;9.98;;;5.05;;
37407;SDS011;24866;50.248;8.252;2023-10-09T14:20:30;9.85;;;5.30;;
37407;SDS011;24866;50.248;8.252;2023-10-09T14:23:00;10.95;;;5.40;;
37407;SDS011;24866;50.248;8.252;2023-10-09T14:25:35;10.40;;;5.88;;
37407;SDS011;24866;50.248;8.252;2023-10-09T14:28:08;12.85;;;5.72;;
37407;SDS011;24866;50.248;8.252;2023-10-09T14:30:38;11.43;;;5.90;;
37407;SDS011;24866;50.248;8.252;2023-10-09T14:33:13;9.52;;;5.40;;
37407;SDS011;24866;50.248;8.252;2023-10-09T14:35:50;10.35;;;5.28;;
37407;SDS011;24866;50.248;8.252;2023-10-09T14:38:23;9.07;;;5.22;;
37407;SDS011;24866;50.248;8.252;2023-10-09T14:41:00;16.58;;;5.28;;
37407;SDS011;24866;50.248;8.252;2023-10-09T14:43:31;13.30;;;5.75;;
37407;SDS011;24866;50.248;8.252;2023-10-09T14:46:02;12.50;;;5.22;;
37407;SDS011;24866;50.248;8.252;2023-10-09T14:48:40;10.20;;;5.30;;
37407;SDS011;24866;50.248;8.252;2023-10-09T14:51:14;10.68;;;5.47;;
37407;SDS011;24866;50.248;8.252;2023-10-09T14:53:44;10.65;;;5.25;;
37407;SDS011;24866;50.248;8.252;2023-10-09T14:56:14;8.55;;;4.78;;
37407;SDS011;24866;50.248;8.252;2023-10-09T14:58:46;10.07;;;5.53;;
37407;SDS011;24866;50.248;8.252;2023-10-09T15:01:18;12.13;;;5.05;;
37407;SDS011;24866;50.248;8.252;2023-10-09T15:03:50;9.85;;;4.55;;
37407;SDS011;24866;50.248;8.252;2023-10-09T15:06:23;9.75;;;5.53;;
37407;SDS011;24866;50.248;8.252;2023-10-09T15:08:56;10.02;;;5.10;;
37407;SDS011;24866;50.248;8.252;2023-10-09T15:11:36;11.80;;;5.45;;
37407;SDS011;24866;50.248;8.252;2023-10-09T15:14:08;10.27;;;4.80;;
37407;SDS011;24866;50.248;8.252;2023-10-09T15:16:38;12.38;;;5.50;;
37407;SDS011;24866;50.248;8.252;2023-10-09T15:19:12;12.82;;;5.82;;
37407;SDS011;24866;50.248;8.252;2023-10-09T15:21:44;11.25;;;5.53;;
37407;SDS011;24866;50.248;8.252;2023-10-09T15:24:15;10.10;;;4.70;;
37407;SDS011;24866;50.248;8.252;2023-10-09T15:26:47;12.80;;;5.05;;
37407;SDS011;24866;50.248;8.252;2023-10-09T15:29:20;9.60;;;4.60;;
37407;SDS011;24866;50.248;8.252;2023-10-09T15:31:51;10.38;;;4.97;;
37407;SDS011;24866;50.248;8.252;2023-10-09T15:34:22;11.60;;;4.65;;
37407;SDS011;24866;50.248;8.252;2023-10-09T15:36:54;8.48;;;5.30;;
37407;SDS011;24866;50.248;8.252;2023-10-09T15:39:24;15.65;;;5.05;;
37407;SDS011;24866;50.248;8.252;2023-10-09T15:41:54;9.32;;;4.85;;
37407;SDS011;24866;50.248;8.252;2023-10-09T15:44:24;9.43;;;4.78;;
37407;SDS011;24866;50.248;8.252;2023-10-09T15:46:54;13.77;;;4.68;;
37407;SDS011;24866;50.248;8.252;2023-10-09T15:49:29;9.15;;;5.07;;
37407;SDS011;24866;50.248;8.252;2023-10-09T15:51:59;9.48;;;4.80;;
37407;SDS011;24866;50.248;8.252;2023-10-09T15:54:29;10.55;;;5.28;;
37407;SDS011;24866;50.248;8.252;2023-10-09T15:57:00;15.10;;;5.78;;